Time;durP1;ratioP1;P1;durP2;ratioP2;P2;SDS_P1;SDS_P2;PMS_P1;PMS_P2;Temp;Humidity;BMP_temperature;BMP_pressure;BME280_temperature;BME280_humidity;BME280_pressure;Samples;Min_cycle;Max_cycle;Signal;HPM_P1;HPM_P2
2022/05/24 00:01:39;;;;;;;1.35;1.30;;;18.10;51.70;;;;;;602564;236;27324;-62
2022/05/24 00:04:07;;;;;;;1.35;1.30;;;18.10;52.30;;;;;;604656;236;26614;-63
2022/05/24 00:06:35;;;;;;;1.48;1.37;;;18.10;51.70;;;;;;603519;235;26570;-62
2022/05/24 00:09:03;;;;;;;1.25;1.15;;;18.10;51.60;;;;;;603484;235;26643;-62
2022/05/24 00:11:31;;;;;;;1.02;1.00;;;18.10;51.80;;;;;;605170;234;26653;-62
2022/05/24 00:13:59;;;;;;;1.62;1.23;;;18.00;51.70;;;;;;607895;233;26711;-62
2022/05/24 00:16:27;;;;;;;1.65;1.55;;;18.00;52.30;;;;;;609087;231;27281;-63
2022/05/24 00:18:54;;;;;;;1.37;1.37;;;17.90;51.90;;;;;;608448;235;26856;-63
2022/05/24 00:21:21;;;;;;;1.98;1.30;;;17.90;51.90;;;;;;602676;235;26673;-63
2022/05/24 00:23:48;;;;;;;1.67;1.42;;;18.00;52.50;;;;;;607069;236;26846;-63
2022/05/24 00:26:17;;;;;;;1.30;1.20;;;18.00;52.10;;;;;;602703;236;26585;-63
2022/05/24 00:28:45;;;;;;;1.73;1.10;;;17.90;52.30;;;;;;606297;234;26589;-63
2022/05/24 00:31:13;;;;;;;1.67;1.45;;;17.80;52.90;;;;;;602071;236;26594;-62
2022/05/24 00:33:40;;;;;;;1.52;1.42;;;17.80;52.50;;;;;;603650;236;26610;-62
2022/05/24 00:36:07;;;;;;;1.12;1.05;;;17.80;52.40;;;;;;594310;239;26667;-63
2022/05/24 00:38:36;;;;;;;1.45;1.30;;;17.70;52.50;;;;;;580990;245;26632;-62
2022/05/24 00:41:12;;;;;;;1.33;1.23;;;17.70;52.80;;;;;;594703;239;26858;-62
2022/05/24 00:43:40;;;;;;;1.40;1.30;;;17.70;52.90;;;;;;598288;239;26631;-62
2022/05/24 00:46:08;;;;;;;1.00;1.00;;;17.80;52.70;;;;;;604483;236;26575;-64
2022/05/24 00:48:37;;;;;;;1.65;1.37;;;17.80;52.60;;;;;;602396;236;26592;-62
2022/05/24 00:51:03;;;;;;;1.73;1.42;;;17.80;52.60;;;;;;605380;236;26809;-62
2022/05/24 00:53:34;;;;;;;3.05;1.55;;;17.80;52.60;;;;;;604722;235;26606;-62
2022/05/24 00:56:17;;;;;;;1.30;1.30;;;17.80;52.60;;;;;;608618;231;26928;-63
2022/05/24 00:58:48;;;;;;;1.65;1.48;;;17.80;52.80;;;;;;605511;236;26618;-63
2022/05/24 01:01:31;;;;;;;1.30;1.30;;;17.80;52.90;;;;;;605040;236;26590;-63
2022/05/24 01:03:58;;;;;;;1.42;1.40;;;17.80;53.00;;;;;;605101;235;26855;-62
2022/05/24 01:06:26;;;;;;;1.45;1.35;;;17.80;52.80;;;;;;604494;236;26585;-62
2022/05/24 01:08:53;;;;;;;1.42;1.37;;;17.80;52.80;;;;;;603001;236;26827;-63
2022/05/24 01:11:21;;;;;;;1.50;1.30;;;17.80;53.10;;;;;;602655;237;26633;-62
2022/05/24 01:13:50;;;;;;;1.52;1.42;;;17.80;53.10;;;;;;602526;236;26682;-62
2022/05/24 01:16:17;;;;;;;1.37;1.27;;;17.80;53.10;;;;;;607909;235;26583;-63
2022/05/24 01:18:45;;;;;;;1.73;1.40;;;17.80;53.30;;;;;;604923;236;26571;-62
2022/05/24 01:21:12;;;;;;;1.52;1.42;;;17.80;53.30;;;;;;604971;236;26609;-63
2022/05/24 01:23:45;;;;;;;1.48;1.33;;;17.80;53.70;;;;;;603088;234;26643;-62
2022/05/24 01:26:32;;;;;;;1.20;1.20;;;17.80;53.60;;;;;;605102;234;26589;-63
2022/05/24 01:29:00;;;;;;;1.50;1.40;;;17.70;53.50;;;;;;603791;235;26659;-62
2022/05/24 01:36:09;;;;;;;2.30;1.45;;;17.80;53.20;;;;;;603257;237;26573;-63
2022/05/24 01:36:27;;;;;;;1.80;1.70;;;17.80;53.40;;;;;;611244;235;26594;-63
2022/05/24 01:38:55;;;;;;;1.48;1.37;;;17.80;53.40;;;;;;608610;235;26841;-63
2022/05/24 01:41:22;;;;;;;1.35;1.25;;;17.80;53.60;;;;;;604975;236;26548;-63
2022/05/24 01:43:49;;;;;;;1.45;1.35;;;17.80;53.60;;;;;;602231;236;26950;-63
2022/05/24 01:46:16;;;;;;;1.30;1.30;;;17.90;53.60;;;;;;602647;237;26552;-63
2022/05/24 01:48:46;;;;;;;1.50;1.35;;;17.90;53.70;;;;;;604362;238;26883;-63
2022/05/24 01:51:12;;;;;;;1.50;1.40;;;17.90;53.60;;;;;;607483;236;26551;-63
2022/05/24 01:53:42;;;;;;;1.37;1.33;;;17.90;53.60;;;;;;603930;236;26631;-63
2022/05/24 01:56:08;;;;;;;2.28;1.40;;;17.80;53.50;;;;;;610521;235;26855;-63
2022/05/24 01:58:36;;;;;;;1.60;1.50;;;17.80;53.60;;;;;;601791;236;26579;-63
2022/05/24 02:01:03;;;;;;;1.80;1.30;;;17.90;53.90;;;;;;603094;236;26911;-63
2022/05/24 02:03:30;;;;;;;1.55;1.45;;;17.80;54.00;;;;;;607265;236;26978;-63
2022/05/24 02:05:58;;;;;;;1.55;1.40;;;17.80;54.50;;;;;;609511;235;26648;-63
2022/05/24 02:08:25;;;;;;;1.52;1.45;;;17.80;54.80;;;;;;606930;235;26895;-63
2022/05/24 02:10:53;;;;;;;1.37;1.23;;;17.80;55.80;;;;;;610401;234;26599;-63
2022/05/24 02:13:22;;;;;;;1.42;1.35;;;17.70;56.00;;;;;;602689;236;26566;-63
2022/05/24 02:15:49;;;;;;;1.60;1.50;;;17.70;56.30;;;;;;604982;236;26608;-63
2022/05/24 02:18:17;;;;;;;1.33;1.30;;;17.60;56.20;;;;;;602037;235;26626;-63
2022/05/24 02:20:45;;;;;;;1.20;1.20;;;17.60;56.50;;;;;;602748;237;26609;-63
2022/05/24 02:23:13;;;;;;;1.45;1.23;;;17.60;56.90;;;;;;603063;237;26621;-63
2022/05/24 02:25:57;;;;;;;1.55;1.45;;;17.60;57.20;;;;;;604508;238;26592;-63
2022/05/24 02:28:24;;;;;;;1.40;1.30;;;17.60;57.00;;;;;;608451;235;27197;-63
2022/05/24 02:30:51;;;;;;;1.50;1.40;;;17.50;57.30;;;;;;601479;237;26659;-63
2022/05/24 02:33:20;;;;;;;1.00;1.00;;;17.50;57.30;;;;;;601963;236;26864;-64
2022/05/24 02:35:46;;;;;;;1.67;1.40;;;17.50;57.50;;;;;;604664;235;26584;-63
2022/05/24 02:38:13;;;;;;;1.60;1.50;;;17.50;57.70;;;;;;602784;237;27228;-63
2022/05/24 02:43:13;;;;;;;2.10;1.55;;;17.40;57.90;;;;;;608326;235;26666;-64
2022/05/24 02:45:40;;;;;;;1.17;1.17;;;17.50;58.20;;;;;;606596;235;26876;-63
2022/05/24 02:48:08;;;;;;;1.62;1.52;;;17.50;58.20;;;;;;605197;235;26613;-64
2022/05/24 02:50:36;;;;;;;1.80;1.30;;;17.50;58.60;;;;;;605485;237;26628;-64
2022/05/24 02:53:03;;;;;;;1.48;1.37;;;17.50;58.20;;;;;;594809;238;26870;-64
2022/05/24 02:55:30;;;;;;;1.83;1.30;;;17.50;58.40;;;;;;581047;247;26602;-64
2022/05/24 02:57:57;;;;;;;1.80;1.70;;;17.50;58.70;;;;;;582175;247;26847;-64
2022/05/24 03:00:24;;;;;;;1.80;1.70;;;17.50;58.70;;;;;;580492;248;26607;-64
2022/05/24 03:02:52;;;;;;;2.78;1.40;;;17.50;58.70;;;;;;582321;247;27181;-64
2022/05/24 03:05:19;;;;;;;1.55;1.45;;;17.50;59.10;;;;;;583563;245;26630;-64
2022/05/24 03:10:20;;;;;;;1.37;1.30;;;17.40;60.10;;;;;;603079;238;26805;-64
2022/05/24 03:15:20;;;;;;;1.45;1.35;;;17.40;60.70;;;;;;601992;238;26839;-64
2022/05/24 03:17:49;;;;;;;1.55;1.45;;;17.30;63.10;;;;;;606253;236;26581;-64
2022/05/24 03:20:16;;;;;;;1.50;1.40;;;17.30;63.10;;;;;;605204;235;26782;-64
2022/05/24 03:22:43;;;;;;;1.50;1.40;;;17.20;63.80;;;;;;607283;236;26653;-64
2022/05/24 03:25:10;;;;;;;1.42;1.30;;;17.20;64.10;;;;;;603101;236;26868;-64
2022/05/24 03:27:37;;;;;;;1.50;1.40;;;17.20;65.20;;;;;;602064;238;26630;-64
2022/05/24 03:30:06;;;;;;;2.28;1.52;;;17.20;65.20;;;;;;603142;237;26781;-64
2022/05/24 03:32:33;;;;;;;1.27;1.27;;;17.20;66.00;;;;;;603382;237;26590;-64
2022/05/24 03:35:04;;;;;;;1.42;1.25;;;17.20;66.00;;;;;;602076;234;26870;-64
2022/05/24 03:37:32;;;;;;;1.83;1.50;;;17.20;66.40;;;;;;610419;235;26666;-64
2022/05/24 03:40:00;;;;;;;1.60;1.50;;;17.10;66.10;;;;;;606501;235;26637;-64
2022/05/24 03:42:27;;;;;;;1.45;1.35;;;17.10;66.10;;;;;;601520;238;26875;-64
2022/05/24 03:44:54;;;;;;;1.23;1.23;;;17.10;65.70;;;;;;608052;236;26626;-64
2022/05/24 03:47:21;;;;;;;1.65;1.55;;;17.10;66.40;;;;;;602553;235;26960;-64
2022/05/24 03:49:48;;;;;;;1.75;1.65;;;17.20;66.40;;;;;;603788;237;26630;-64
2022/05/24 03:52:16;;;;;;;1.50;1.40;;;17.20;66.90;;;;;;603856;236;27046;-64
2022/05/24 03:54:43;;;;;;;1.85;1.40;;;17.20;66.90;;;;;;604379;237;26624;-64
2022/05/24 03:59:43;;;;;;;1.73;1.30;;;17.30;67.10;;;;;;605027;237;26670;-64
2022/05/24 04:02:10;;;;;;;1.50;1.40;;;17.30;66.60;;;;;;607475;236;26873;-64
2022/05/24 04:04:37;;;;;;;1.67;1.58;;;17.30;66.60;;;;;;604704;236;26610;-64
2022/05/24 04:07:05;;;;;;;1.42;1.33;;;17.30;66.80;;;;;;606157;235;26866;-65
2022/05/24 04:09:33;;;;;;;1.70;1.40;;;17.30;67.30;;;;;;610294;234;26711;-66
2022/05/24 04:12:00;;;;;;;1.73;1.60;;;17.30;68.10;;;;;;609272;235;27382;-64
2022/05/24 04:14:29;;;;;;;1.52;1.52;;;17.30;71.60;;;;;;602762;236;26893;-62
2022/05/24 04:16:56;;;;;;;2.15;1.45;;;17.20;75.80;;;;;;602420;237;26585;-62
2022/05/24 04:19:24;;;;;;;1.70;1.60;;;16.80;82.60;;;;;;607893;236;26580;-62
2022/05/24 04:21:52;;;;;;;1.67;1.58;;;16.80;82.60;;;;;;607110;235;26724;-62
2022/05/24 04:24:19;;;;;;;1.87;1.40;;;16.80;87.90;;;;;;606047;236;26644;-62
2022/05/24 04:26:46;;;;;;;1.77;1.65;;;16.70;87.00;;;;;;606604;235;26879;-62
2022/05/24 04:29:13;;;;;;;1.77;1.37;;;16.70;87.30;;;;;;607215;235;26620;-62
2022/05/24 04:31:40;;;;;;;1.77;1.60;;;16.60;89.40;;;;;;608349;235;26865;-62
2022/05/24 04:34:08;;;;;;;1.60;1.50;;;16.60;89.60;;;;;;605506;236;26614;-62
2022/05/24 04:36:35;;;;;;;1.60;1.33;;;16.60;90.30;;;;;;604503;235;26845;-62
2022/05/24 04:39:02;;;;;;;1.80;1.55;;;16.60;90.80;;;;;;602382;235;26680;-64
2022/05/24 04:44:03;;;;;;;99.65;21.90;;;16.60;92.00;;;;;;601563;238;27106;-64
2022/05/24 04:47:06;;;;;;;98.15;21.00;;;16.60;92.80;;;;;;606451;236;26608;-64
2022/05/24 04:48:57;;;;;;;105.03;18.23;;;16.50;93.20;;;;;;610518;235;26870;-66
2022/05/24 04:51:24;;;;;;;96.05;18.12;;;16.60;93.30;;;;;;603783;236;26624;-66
2022/05/24 04:53:51;;;;;;;69.60;14.87;;;16.60;94.20;;;;;;604070;235;26831;-65
2022/05/24 04:56:19;;;;;;;49.70;9.43;;;16.60;93.90;;;;;;603528;238;26562;-64
2022/05/24 04:58:46;;;;;;;35.45;8.18;;;16.60;96.00;;;;;;604390;235;26847;-64
2022/05/24 05:01:13;;;;;;;37.58;8.80;;;16.50;97.40;;;;;;606865;234;26587;-62
2022/05/24 05:03:40;;;;;;;37.45;8.23;;;16.40;99.10;;;;;;607451;234;26928;-62
2022/05/24 05:06:10;;;;;;;9.48;3.70;;;16.30;99.90;;;;;;607660;234;26581;-62
2022/05/24 05:08:35;;;;;;;21.48;7.15;;;16.40;99.90;;;;;;603422;237;26851;-62
2022/05/24 05:11:02;;;;;;;22.42;6.57;;;16.40;99.90;;;;;;605701;236;26666;-63
2022/05/24 05:13:29;;;;;;;15.52;5.28;;;16.50;99.90;;;;;;606351;235;26857;-62
2022/05/24 05:15:57;;;;;;;21.98;7.18;;;16.50;99.90;;;;;;602260;237;26585;-62
2022/05/24 05:18:24;;;;;;;20.45;5.97;;;16.60;99.90;;;;;;601959;236;26924;-62
2022/05/24 05:20:51;;;;;;;20.27;6.37;;;16.60;99.90;;;;;;601816;238;26588;-62
2022/05/24 05:23:18;;;;;;;13.68;4.60;;;16.60;99.90;;;;;;603966;235;26949;-62
2022/05/24 05:25:47;;;;;;;10.15;4.75;;;16.60;99.90;;;;;;607559;235;26630;-62
2022/05/24 05:28:14;;;;;;;17.17;5.50;;;16.60;99.90;;;;;;610901;231;26589;-62
2022/05/24 05:33:15;;;;;;;10.30;4.05;;;16.50;99.90;;;;;;605902;236;26599;-61
2022/05/24 05:35:44;;;;;;;10.32;4.30;;;16.50;99.90;;;;;;607608;235;26877;-62
2022/05/24 05:38:11;;;;;;;12.07;4.10;;;16.40;99.90;;;;;;609350;235;26652;-62
2022/05/24 05:40:39;;;;;;;8.13;3.58;;;16.50;99.90;;;;;;610392;234;26624;-61
2022/05/24 05:43:07;;;;;;;7.10;3.30;;;16.50;99.90;;;;;;607200;235;26624;-61
2022/05/24 05:45:35;;;;;;;7.55;3.50;;;16.50;99.90;;;;;;603195;235;26616;-62
2022/05/24 05:48:02;;;;;;;6.35;2.55;;;16.50;99.90;;;;;;604010;236;26629;-61
2022/05/24 05:50:29;;;;;;;5.72;2.90;;;16.40;99.90;;;;;;606020;235;26867;-61
2022/05/24 05:52:56;;;;;;;4.12;2.45;;;16.40;99.90;;;;;;604682;237;26643;-64
2022/05/24 05:55:25;;;;;;;6.57;2.85;;;16.40;99.90;;;;;;604658;233;26817;-64
2022/05/24 05:57:51;;;;;;;6.82;2.47;;;16.40;99.90;;;;;;604566;232;26602;-64
2022/05/24 06:00:19;;;;;;;5.87;2.20;;;16.40;99.90;;;;;;604591;238;26587;-64
2022/05/24 06:02:47;;;;;;;3.53;2.10;;;16.50;99.90;;;;;;604543;234;26570;-64
2022/05/24 06:05:14;;;;;;;8.63;2.50;;;16.60;99.90;;;;;;604588;237;26583;-64
2022/05/24 06:07:42;;;;;;;6.85;2.45;;;16.60;99.90;;;;;;604562;237;26574;-65
2022/05/24 06:10:10;;;;;;;4.28;2.20;;;16.70;99.90;;;;;;605214;236;26581;-64
2022/05/24 06:12:37;;;;;;;5.30;2.22;;;17.00;99.90;;;;;;605849;236;26577;-64
2022/05/24 06:15:05;;;;;;;2.80;2.08;;;17.30;99.90;;;;;;605614;231;26839;-64
2022/05/24 06:17:32;;;;;;;5.30;3.35;;;17.40;99.90;;;;;;605423;237;26590;-65
2022/05/24 06:20:00;;;;;;;2.45;2.25;;;17.40;98.90;;;;;;605153;237;26855;-70
2022/05/24 06:22:28;;;;;;;9.80;3.15;;;17.40;99.30;;;;;;605030;238;26850;-70
2022/05/24 06:24:55;;;;;;;6.80;3.15;;;17.40;99.00;;;;;;605180;237;27024;-70
2022/05/24 06:27:22;;;;;;;5.35;2.83;;;17.40;98.60;;;;;;605174;238;26618;-70
2022/05/24 06:29:49;;;;;;;4.82;3.00;;;17.60;98.20;;;;;;604953;237;26823;-70
2022/05/24 06:32:17;;;;;;;5.70;2.80;;;17.90;97.20;;;;;;604862;238;26587;-70
2022/05/24 06:34:48;;;;;;;6.18;3.05;;;18.00;97.10;;;;;;604866;237;26611;-71
2022/05/24 06:37:13;;;;;;;5.90;3.12;;;18.10;95.20;;;;;;604528;235;26603;-71
2022/05/24 06:39:42;;;;;;;5.75;2.75;;;18.10;94.80;;;;;;604052;235;26590;-71
2022/05/24 06:42:09;;;;;;;3.58;2.42;;;18.10;94.80;;;;;;604043;236;26557;-71
2022/05/24 06:44:36;;;;;;;4.10;3.00;;;18.10;94.00;;;;;;606618;235;26629;-68
2022/05/24 06:47:04;;;;;;;8.60;2.70;;;18.40;94.60;;;;;;602857;236;26606;-69
2022/05/24 06:49:31;;;;;;;7.07;2.67;;;18.40;94.60;;;;;;602074;238;26643;-70
2022/05/24 06:51:58;;;;;;;2.92;2.47;;;18.30;92.90;;;;;;604527;237;26571;-72
2022/05/24 06:54:27;;;;;;;5.32;2.58;;;18.20;92.00;;;;;;604036;237;26602;-72
2022/05/24 06:56:54;;;;;;;6.12;2.40;;;18.30;91.80;;;;;;604300;238;26586;-73
2022/05/24 07:04:28;;;;;;;5.62;2.53;;;18.70;90.50;;;;;;604719;235;26578;-71
2022/05/24 07:06:56;;;;;;;3.10;2.65;;;19.50;87.20;;;;;;608073;236;26581;-70
2022/05/24 07:09:28;;;;;;;3.55;2.33;;;19.20;87.70;;;;;;602930;236;26635;-70
2022/05/24 07:11:51;;;;;;;4.60;2.37;;;19.20;87.60;;;;;;606662;236;26619;-70
2022/05/24 07:14:18;;;;;;;6.07;2.33;;;19.30;86.60;;;;;;607411;236;26664;-67
2022/05/24 07:16:46;;;;;;;3.20;1.90;;;19.60;85.60;;;;;;606018;236;26599;-70
2022/05/24 07:19:14;;;;;;;3.62;2.22;;;19.60;84.30;;;;;;608752;236;26572;-70
2022/05/24 07:21:44;;;;;;;2.83;2.17;;;19.80;83.30;;;;;;602065;237;26657;-70
2022/05/24 07:24:09;;;;;;;4.22;2.22;;;19.80;83.20;;;;;;606881;235;26658;-71
2022/05/24 07:26:37;;;;;;;2.37;2.10;;;19.70;80.30;;;;;;612622;234;26619;-71
2022/05/24 07:29:04;;;;;;;2.85;2.28;;;19.60;80.40;;;;;;606300;234;26846;-71
2022/05/24 07:31:32;;;;;;;1.65;1.55;;;19.60;80.70;;;;;;607726;235;26648;-71
2022/05/24 07:33:59;;;;;;;1.50;1.40;;;20.00;80.00;;;;;;606957;235;26838;-72
2022/05/24 07:36:26;;;;;;;5.07;2.33;;;19.80;77.80;;;;;;602092;238;26918;-72
2022/05/24 07:38:53;;;;;;;2.05;1.77;;;19.50;77.90;;;;;;602075;236;26586;-69
2022/05/24 07:46:26;;;;;;;2.60;1.83;;;19.10;77.90;;;;;;603135;237;26781;-72
2022/05/24 07:48:54;;;;;;;2.87;1.85;;;19.10;77.80;;;;;;610293;235;26583;-68
2022/05/24 07:51:21;;;;;;;2.60;1.80;;;19.00;78.40;;;;;;602470;235;26625;-69
2022/05/24 07:53:49;;;;;;;2.95;1.67;;;18.90;79.00;;;;;;604771;238;26841;-69
2022/05/24 07:56:18;;;;;;;2.62;2.00;;;19.00;79.60;;;;;;604856;232;26583;-69
2022/05/24 07:58:43;;;;;;;2.08;1.83;;;18.80;78.90;;;;;;602306;238;27270;-68
2022/05/24 08:01:10;;;;;;;2.35;1.98;;;19.00;79.70;;;;;;608648;236;26591;-68
2022/05/24 08:03:38;;;;;;;1.95;1.70;;;19.20;78.70;;;;;;603715;237;27181;-68
2022/05/24 08:06:06;;;;;;;2.97;1.60;;;19.10;77.70;;;;;;602850;237;26618;-70
2022/05/24 08:08:41;;;;;;;2.62;1.90;;;19.60;76.90;;;;;;602428;238;26573;-69
2022/05/24 08:11:08;;;;;;;4.50;1.83;;;19.60;76.90;;;;;;601997;235;26854;-68
2022/05/24 08:13:36;;;;;;;1.70;1.60;;;20.40;75.10;;;;;;603912;237;26628;-71
2022/05/24 08:16:04;;;;;;;1.73;1.55;;;21.10;72.50;;;;;;609340;235;26607;-67
2022/05/24 08:18:32;;;;;;;4.70;1.75;;;20.50;71.50;;;;;;603759;235;26594;-71
2022/05/24 08:20:59;;;;;;;2.12;1.90;;;20.00;73.30;;;;;;612278;235;26671;-70
2022/05/24 08:23:27;;;;;;;1.50;1.40;;;20.00;72.50;;;;;;604427;235;26751;-69
2022/05/24 08:25:55;;;;;;;2.58;1.80;;;19.70;73.80;;;;;;609151;236;26574;-68
2022/05/24 08:28:22;;;;;;;4.28;1.70;;;19.40;73.80;;;;;;603350;236;26638;-69
2022/05/24 08:30:50;;;;;;;2.78;1.92;;;19.10;74.50;;;;;;604039;236;26854;-68
2022/05/24 08:33:17;;;;;;;2.97;1.65;;;19.00;75.70;;;;;;601945;237;26665;-68
2022/05/24 08:35:45;;;;;;;2.87;1.70;;;18.70;75.60;;;;;;607006;234;26605;-69
2022/05/24 08:38:14;;;;;;;5.37;1.75;;;18.70;75.60;;;;;;603204;235;26925;-67
2022/05/24 08:40:41;;;;;;;1.60;1.50;;;18.40;76.80;;;;;;604067;236;26574;-67
2022/05/24 08:43:10;;;;;;;2.62;1.90;;;18.30;77.20;;;;;;604087;238;26899;-68
2022/05/24 08:48:31;;;;;;;3.62;1.75;;;18.40;78.10;;;;;;603166;234;26585;-68
2022/05/24 08:51:14;;;;;;;2.40;1.50;;;18.50;76.20;;;;;;603007;238;26556;-69
2022/05/24 08:53:42;;;;;;;1.85;1.73;;;18.50;76.20;;;;;;601953;235;26656;-65
2022/05/24 08:56:10;;;;;;;1.50;1.33;;;19.00;72.00;;;;;;601776;239;26586;-68
2022/05/24 08:58:37;;;;;;;2.78;1.50;;;19.10;71.00;;;;;;601748;239;26590;-68
2022/05/24 09:01:06;;;;;;;5.18;2.50;;;19.30;70.90;;;;;;601725;237;27038;-69
2022/05/24 09:03:33;;;;;;;4.62;2.60;;;19.60;70.30;;;;;;604149;234;26952;-68
2022/05/24 09:06:02;;;;;;;13.73;3.97;;;19.70;69.90;;;;;;609243;236;26617;-69
2022/05/24 09:08:30;;;;;;;10.07;4.40;;;19.70;70.20;;;;;;603098;238;26601;-68
2022/05/24 09:11:09;;;;;;;14.73;4.72;;;19.70;69.90;;;;;;606910;235;26663;-68
2022/05/24 09:13:50;;;;;;;6.47;3.47;;;19.80;67.90;;;;;;605391;234;27048;-68
2022/05/24 09:16:18;;;;;;;11.73;4.10;;;20.00;66.30;;;;;;607718;236;26642;-68
2022/05/24 09:19:04;;;;;;;10.10;3.42;;;20.20;66.00;;;;;;606140;236;26822;-69
2022/05/24 09:21:29;;;;;;;7.47;3.70;;;20.10;64.30;;;;;;609961;235;26651;-69
2022/05/24 09:24:14;;;;;;;7.22;3.45;;;20.50;64.40;;;;;;602666;235;26633;-68
2022/05/24 09:27:03;;;;;;;5.80;2.42;;;20.40;64.30;;;;;;605965;236;26611;-68
2022/05/24 09:29:31;;;;;;;5.90;2.90;;;21.10;63.80;;;;;;601849;235;26875;-68
2022/05/24 09:31:57;;;;;;;5.85;2.70;;;21.10;63.30;;;;;;602146;237;26597;-69
2022/05/24 09:34:24;;;;;;;3.42;2.15;;;20.90;62.60;;;;;;602486;236;27300;-68
2022/05/24 09:37:06;;;;;;;5.20;2.72;;;20.50;63.70;;;;;;604537;232;26581;-68
2022/05/24 09:39:35;;;;;;;3.80;2.40;;;20.50;63.30;;;;;;604437;235;26550;-67
2022/05/24 09:42:04;;;;;;;3.78;2.50;;;20.40;61.90;;;;;;610220;235;26620;-68
2022/05/24 09:44:43;;;;;;;4.40;2.20;;;20.30;61.10;;;;;;602810;234;26679;-68
2022/05/24 09:47:21;;;;;;;1.60;1.50;;;20.40;61.20;;;;;;605456;235;26628;-69
2022/05/24 09:49:49;;;;;;;3.95;1.83;;;20.50;61.00;;;;;;609376;235;26655;-69
2022/05/24 09:52:17;;;;;;;4.55;2.35;;;20.60;61.10;;;;;;605186;234;26670;-69
2022/05/24 09:54:58;;;;;;;3.78;2.47;;;20.80;59.90;;;;;;610475;234;26597;-68
2022/05/24 09:57:25;;;;;;;3.92;2.00;;;20.80;59.90;;;;;;610416;236;26589;-69
2022/05/24 10:00:00;;;;;;;4.68;2.20;;;20.80;60.10;;;;;;605095;236;27296;-69
2022/05/24 10:02:28;;;;;;;4.12;2.40;;;20.90;59.50;;;;;;603212;235;26970;-70
2022/05/24 10:04:55;;;;;;;89.53;20.35;;;21.10;59.10;;;;;;605084;238;26601;-71
2022/05/24 10:07:25;;;;;;;104.45;23.00;;;21.20;59.00;;;;;;605049;238;26549;-70
2022/05/24 10:10:15;;;;;;;142.65;27.80;;;21.20;58.80;;;;;;603365;235;26946;-70
2022/05/24 10:13:03;;;;;;;109.50;24.20;;;21.40;58.70;;;;;;603189;234;26586;-68
2022/05/24 10:15:33;;;;;;;23.23;6.30;;;22.00;56.50;;;;;;598959;239;26683;-68
2022/05/24 10:18:08;;;;;;;68.43;13.88;;;22.00;56.10;;;;;;604052;236;26821;-69
2022/05/24 10:20:37;;;;;;;57.00;12.73;;;22.30;56.30;;;;;;602944;236;26556;-68
2022/05/24 10:23:12;;;;;;;42.10;11.75;;;22.20;56.30;;;;;;604568;236;26808;-68
2022/05/24 10:25:51;;;;;;;37.50;9.57;;;22.20;56.30;;;;;;603802;236;26595;-67
2022/05/24 10:28:27;;;;;;;5.07;3.05;;;22.00;56.40;;;;;;604265;236;26558;-68
2022/05/24 10:30:55;;;;;;;15.38;5.18;;;21.80;56.90;;;;;;602585;238;26837;-68
2022/05/24 10:38:46;;;;;;;12.05;5.00;;;22.00;56.20;;;;;;603341;237;26589;-70
2022/05/24 10:41:16;;;;;;;24.90;6.25;;;22.10;55.90;;;;;;603360;238;26567;-70
2022/05/24 10:43:50;;;;;;;15.32;4.85;;;22.10;55.90;;;;;;602840;238;26869;-69
2022/05/24 10:46:20;;;;;;;14.10;6.85;;;22.10;56.60;;;;;;604490;238;26549;-70
2022/05/24 10:48:54;;;;;;;17.25;6.57;;;22.10;56.40;;;;;;604394;238;26601;-70
2022/05/24 10:51:23;;;;;;;10.43;3.10;;;22.20;55.60;;;;;;604608;238;26844;-70
2022/05/24 10:53:53;;;;;;;7.07;3.53;;;22.00;56.10;;;;;;604352;238;26594;-70
2022/05/24 10:56:38;;;;;;;7.70;3.37;;;22.30;55.50;;;;;;605076;235;26557;-71
2022/05/24 10:59:23;;;;;;;13.52;5.75;;;22.20;55.80;;;;;;605657;237;26563;-71
2022/05/24 11:01:55;;;;;;;5.40;2.72;;;22.40;55.50;;;;;;604623;237;26571;-71
2022/05/24 11:04:23;;;;;;;6.60;2.70;;;22.40;55.40;;;;;;605281;237;26626;-71
2022/05/24 11:06:55;;;;;;;6.82;3.03;;;22.30;54.70;;;;;;604970;237;26619;-70
2022/05/24 11:09:23;;;;;;;6.20;2.28;;;22.10;55.40;;;;;;604985;238;26635;-70
2022/05/24 11:12:08;;;;;;;5.80;2.70;;;22.40;54.40;;;;;;605107;236;26642;-71
2022/05/24 11:14:51;;;;;;;7.97;3.62;;;22.40;54.40;;;;;;604897;238;26657;-70
2022/05/24 11:17:20;;;;;;;5.22;2.80;;;22.10;54.30;;;;;;604412;238;26591;-70
2022/05/24 11:19:47;;;;;;;5.82;2.45;;;22.30;55.40;;;;;;604794;234;26606;-71
2022/05/24 11:22:20;;;;;;;5.62;2.95;;;22.20;55.30;;;;;;604757;232;26590;-71
2022/05/24 11:24:58;;;;;;;6.95;2.55;;;22.50;54.80;;;;;;604418;238;26601;-71
2022/05/24 11:27:31;;;;;;;4.05;2.90;;;22.70;54.50;;;;;;604887;238;26825;-71
2022/05/24 11:29:59;;;;;;;3.70;2.42;;;23.00;54.20;;;;;;604861;237;26590;-70
2022/05/24 11:32:31;;;;;;;8.55;3.90;;;23.50;53.40;;;;;;604403;238;26589;-71
2022/05/24 11:35:35;;;;;;;7.30;3.47;;;23.70;52.30;;;;;;604392;238;26643;-71
2022/05/24 11:38:09;;;;;;;5.22;2.55;;;23.60;52.20;;;;;;604421;238;26586;-71
2022/05/24 11:40:58;;;;;;;3.37;2.03;;;23.90;52.40;;;;;;604494;237;26575;-70
2022/05/24 11:43:59;;;;;;;3.33;1.98;;;24.30;51.70;;;;;;600869;238;26647;-71
2022/05/24 11:46:37;;;;;;;3.28;2.10;;;24.50;51.20;;;;;;604455;232;26603;-70
2022/05/24 11:49:05;;;;;;;4.07;1.98;;;24.50;51.20;;;;;;604552;238;26562;-71
2022/05/24 11:51:39;;;;;;;2.20;2.00;;;24.10;51.40;;;;;;604383;238;26801;-71
2022/05/24 11:54:09;;;;;;;3.10;1.83;;;24.10;51.00;;;;;;604519;237;26842;-71
2022/05/24 11:56:36;;;;;;;2.20;2.00;;;24.10;51.40;;;;;;602717;238;26820;-66
2022/05/24 11:59:03;;;;;;;1.87;1.65;;;24.00;51.00;;;;;;604507;237;26600;-65
2022/05/24 12:01:31;;;;;;;2.72;1.92;;;24.10;51.10;;;;;;604375;238;26834;-65
2022/05/24 12:10:05;;;;;;;4.35;2.03;;;24.10;51.00;;;;;;602902;237;26616;-65
2022/05/24 12:12:36;;;;;;;3.72;2.22;;;24.30;51.70;;;;;;605383;237;26620;-64
2022/05/24 12:15:06;;;;;;;4.15;2.22;;;24.30;51.70;;;;;;604806;237;26859;-65
2022/05/24 12:17:34;;;;;;;2.08;1.60;;;24.70;51.40;;;;;;604959;237;26843;-64
2022/05/24 12:20:04;;;;;;;3.35;2.55;;;24.70;51.40;;;;;;605137;238;26976;-63
2022/05/24 12:22:32;;;;;;;3.35;2.45;;;25.20;50.70;;;;;;605280;235;26636;-63
2022/05/24 12:24:57;;;;;;;1.75;1.65;;;25.40;50.20;;;;;;606139;234;27531;-64
2022/05/24 12:27:31;;;;;;;2.30;1.87;;;24.80;50.20;;;;;;604999;236;26583;-63
2022/05/24 12:30:00;;;;;;;1.87;1.50;;;24.80;50.10;;;;;;603015;237;26830;-63
2022/05/24 12:32:28;;;;;;;1.85;1.75;;;24.70;50.30;;;;;;601406;235;26640;-64
2022/05/24 12:35:09;;;;;;;1.70;1.60;;;24.40;50.90;;;;;;602659;238;26620;-64
2022/05/24 12:37:37;;;;;;;2.22;1.80;;;24.00;50.40;;;;;;601780;237;26673;-64
2022/05/24 12:40:09;;;;;;;4.25;1.98;;;23.60;50.70;;;;;;601774;233;26551;-63
2022/05/24 12:42:49;;;;;;;2.42;1.70;;;23.10;51.60;;;;;;601763;237;26914;-64
2022/05/24 12:45:17;;;;;;;2.30;1.60;;;22.80;51.80;;;;;;601568;237;26672;-64
2022/05/24 12:47:45;;;;;;;3.62;1.62;;;22.70;52.00;;;;;;601586;239;26635;-64
2022/05/24 12:50:19;;;;;;;2.95;1.75;;;23.00;52.10;;;;;;601653;239;26615;-64
2022/05/24 12:52:46;;;;;;;1.75;1.50;;;23.00;52.10;;;;;;608628;235;26604;-64
2022/05/24 12:55:13;;;;;;;3.72;1.60;;;23.80;51.70;;;;;;602269;236;26801;-64
2022/05/24 12:57:43;;;;;;;4.62;1.50;;;24.70;50.70;;;;;;604793;235;26652;-63
2022/05/24 13:00:24;;;;;;;2.60;1.70;;;25.20;49.80;;;;;;605138;235;26894;-62
2022/05/24 13:02:51;;;;;;;2.40;1.73;;;25.20;49.70;;;;;;609743;234;26647;-65
2022/05/24 13:05:21;;;;;;;2.03;1.62;;;25.50;49.30;;;;;;602541;237;27081;-65
2022/05/24 13:08:00;;;;;;;3.08;1.70;;;26.50;48.80;;;;;;602978;236;26645;-64
2022/05/24 13:10:27;;;;;;;1.73;1.62;;;26.40;48.70;;;;;;606456;235;26595;-65
2022/05/24 13:12:56;;;;;;;1.85;1.60;;;27.10;47.50;;;;;;603424;235;26644;-64
2022/05/24 13:15:25;;;;;;;1.80;1.58;;;27.50;46.90;;;;;;606181;236;26784;-64
2022/05/24 13:17:53;;;;;;;1.55;1.40;;;27.80;46.50;;;;;;607174;235;26660;-63
2022/05/24 13:20:36;;;;;;;8.82;2.40;;;28.10;45.90;;;;;;610936;233;26833;-64
2022/05/24 13:23:06;;;;;;;2.42;1.90;;;27.70;46.20;;;;;;606803;235;26688;-64
2022/05/24 13:25:43;;;;;;;2.55;1.77;;;26.50;46.90;;;;;;607634;234;26661;-64
2022/05/24 13:28:10;;;;;;;3.22;2.00;;;26.50;46.90;;;;;;605893;234;26867;-65
2022/05/24 13:35:43;;;;;;;2.42;1.67;;;24.80;48.60;;;;;;605075;234;26826;-65
2022/05/24 13:38:10;;;;;;;3.83;1.90;;;24.40;49.00;;;;;;602697;236;26590;-65
2022/05/24 13:40:38;;;;;;;1.65;1.55;;;24.70;48.50;;;;;;605328;236;26585;-64
2022/05/24 13:43:05;;;;;;;1.87;1.70;;;24.50;48.50;;;;;;603584;236;26867;-66
2022/05/24 13:45:34;;;;;;;3.40;1.67;;;23.90;49.40;;;;;;605203;235;26582;-66